Time;durP1;ratioP1;P1;durP2;ratioP2;P2;SDS_P1;SDS_P2;PMS_P1;PMS_P2;Temp;Humidity;BMP_temperature;BMP_pressure;BME280_temperature;BME280_humidity;BME280_pressure;Samples;Min_cycle;Max_cycle;Signal;HPM_P1;HPM_P2
2022/12/02 00:00:44;;;;;;;;;;;;;;;21.37;38.22;95415.88;6121295;19;1913;-66
2022/12/02 00:02:48;;;;;;;;;;;;;;;21.37;37.82;95407.84;6121132;19;1942;-66
2022/12/02 00:04:56;;;;;;;;;;;;;;;21.37;38.08;95413.19;6122528;19;1797;-66
2022/12/02 00:07:01;;;;;;;;;;;;;;;21.35;38.12;95412.56;6106614;19;2060;-66
2022/12/02 00:09:14;;;;;;;;;;;;;;;21.36;37.94;95416.88;6127279;19;1725;-66
2022/12/02 00:11:24;;;;;;;;;;;;;;;21.37;37.77;95412.34;6128086;19;1921;-66
2022/12/02 00:13:29;;;;;;;;;;;;;;;21.35;37.59;95411.75;6127597;19;2100;-66
2022/12/02 00:15:37;;;;;;;;;;;;;;;21.36;38.08;95413.41;6125723;19;2102;-66
2022/12/02 00:17:43;;;;;;;;;;;;;;;21.35;38.01;95417.94;6100031;19;1861;-66
2022/12/02 00:19:46;;;;;;;;;;;;;;;21.36;38.06;95419.56;6124589;19;1061;-66
2022/12/02 00:21:50;;;;;;;;;;;;;;;21.35;37.89;95422.47;6127703;19;1912;-66
2022/12/02 00:23:53;;;;;;;;;;;;;;;21.34;38.03;95424.31;6123451;19;1904;-66
2022/12/02 00:25:57;;;;;;;;;;;;;;;21.35;37.99;95419.78;6127602;19;1886;-67
2022/12/02 00:28:00;;;;;;;;;;;;;;;21.35;37.89;95420.59;6123633;19;1915;-66
2022/12/02 00:30:04;;;;;;;;;;;;;;;21.36;37.95;95418.75;6105060;19;1882;-66
2022/12/02 00:32:08;;;;;;;;;;;;;;;21.36;38.26;95422.22;6122338;19;2096;-66
2022/12/02 00:34:14;;;;;;;;;;;;;;;21.35;37.79;95417.09;6122588;19;2112;-66
2022/12/02 00:36:17;;;;;;;;;;;;;;;21.37;37.70;95417.69;6123400;19;2071;-67
2022/12/02 00:38:20;;;;;;;;;;;;;;;21.36;37.87;95410.72;6124470;19;1925;-66
2022/12/02 00:40:23;;;;;;;;;;;;;;;21.32;37.99;95412.19;6102470;19;2035;-66
2022/12/02 00:42:27;;;;;;;;;;;;;;;21.35;37.99;95409.09;6124631;19;1847;-66
2022/12/02 00:46:46;;;;;;;;;;;;;;;21.35;37.77;95404.56;6126025;19;1933;-67
2022/12/02 00:48:49;;;;;;;;;;;;;;;21.35;37.87;95407.22;6122951;19;1772;-67
2022/12/02 00:50:55;;;;;;;;;;;;;;;21.39;37.62;95407.63;6122521;19;2025;-66
2022/12/02 00:52:58;;;;;;;;;;;;;;;21.35;37.91;95404.56;6100138;19;2131;-66
2022/12/02 00:55:01;;;;;;;;;;;;;;;21.36;37.91;95408.06;6127162;19;1924;-66
2022/12/02 00:57:05;;;;;;;;;;;;;;;21.36;38.27;95398.19;6123123;19;1853;-66
2022/12/02 00:59:08;;;;;;;;;;;;;;;21.37;38.06;95409.69;6123032;19;2009;-66
2022/12/02 01:01:12;;;;;;;;;;;;;;;21.34;38.07;95396.72;6123225;19;1908;-66
2022/12/02 01:03:15;;;;;;;;;;;;;;;21.35;37.79;95395.72;6109589;19;1953;-66
2022/12/02 01:05:19;;;;;;;;;;;;;;;21.34;37.68;95394.91;6117195;19;1802;-66
2022/12/02 01:07:25;;;;;;;;;;;;;;;21.39;37.74;95403.09;6123463;19;2088;-65
2022/12/02 01:09:28;;;;;;;;;;;;;;;21.35;37.78;95399.22;6123794;19;1865;-65
2022/12/02 01:11:31;;;;;;;;;;;;;;;21.34;37.96;95394.91;6123575;19;1835;-65
2022/12/02 01:13:35;;;;;;;;;;;;;;;21.36;37.91;95392.00;6122867;19;2072;-65
2022/12/02 01:15:38;;;;;;;;;;;;;;;21.37;38.10;95396.31;6096392;19;2152;-65
2022/12/02 01:17:41;;;;;;;;;;;;;;;21.35;38.29;95390.38;6120269;19;2086;-65
2022/12/02 01:19:45;;;;;;;;;;;;;;;21.36;38.21;95392.00;6123913;19;1857;-65
2022/12/02 01:21:48;;;;;;;;;;;;;;;21.38;38.10;95389.97;6123854;19;2025;-65
2022/12/02 01:23:54;;;;;;;;;;;;;;;21.38;38.01;95384.63;6124114;19;1855;-65
2022/12/02 01:25:58;;;;;;;;;;;;;;;21.39;37.97;95383.56;6113362;19;1858;-65
2022/12/02 01:28:01;;;;;;;;;;;;;;;21.36;37.96;95376.78;6109844;19;2146;-65
2022/12/02 01:30:05;;;;;;;;;;;;;;;21.33;38.37;95377.22;6123474;19;1956;-66
2022/12/02 01:32:08;;;;;;;;;;;;;;;21.33;38.10;95379.88;6123774;19;2014;-65
2022/12/02 01:34:12;;;;;;;;;;;;;;;21.35;37.85;95377.84;6123715;19;2404;-65
2022/12/02 01:36:15;;;;;;;;;;;;;;;21.34;38.15;95378.03;6123854;19;1833;-65
2022/12/02 01:38:18;;;;;;;;;;;;;;;21.37;38.24;95377.59;6099357;19;1954;-65
2022/12/02 01:40:24;;;;;;;;;;;;;;;21.34;38.18;95388.72;6123703;19;2339;-65
2022/12/02 01:42:28;;;;;;;;;;;;;;;21.36;37.89;95387.47;6121985;19;1931;-65
2022/12/02 01:44:31;;;;;;;;;;;;;;;21.34;37.81;95378.88;6124097;19;1778;-66
2022/12/02 01:46:34;;;;;;;;;;;;;;;21.38;37.96;95387.28;6121995;19;1851;-65
2022/12/02 01:48:38;;;;;;;;;;;;;;;21.36;37.96;95384.00;6122044;19;1871;-66
2022/12/02 01:50:42;;;;;;;;;;;;;;;21.34;37.88;95383.38;6101586;19;2190;-65
2022/12/02 01:52:46;;;;;;;;;;;;;;;21.33;38.23;95387.91;6121660;19;1876;-66
2022/12/02 01:54:50;;;;;;;;;;;;;;;21.42;38.17;95385.84;6121335;19;2028;-66
2022/12/02 01:56:56;;;;;;;;;;;;;;;21.48;37.89;95385.00;6120422;19;1859;-67
2022/12/02 01:58:59;;;;;;;;;;;;;;;21.47;37.82;95379.88;6121258;19;1790;-65
2022/12/02 02:01:02;;;;;;;;;;;;;;;21.43;38.15;95388.31;6100133;19;2147;-64
2022/12/02 02:03:06;;;;;;;;;;;;;;;21.42;38.46;95391.19;6120534;19;2132;-65
2022/12/02 02:05:11;;;;;;;;;;;;;;;21.41;38.27;95390.34;6121204;19;2096;-65
2022/12/02 02:07:15;;;;;;;;;;;;;;;21.41;38.40;95392.22;6120527;19;2184;-66
2022/12/02 02:09:18;;;;;;;;;;;;;;;21.41;38.45;95395.72;6121843;19;2094;-64
2022/12/02 02:11:21;;;;;;;;;;;;;;;21.41;38.14;95405.59;6122781;19;2023;-65
2022/12/02 02:13:27;;;;;;;;;;;;;;;21.43;38.05;95399.00;6098100;19;2101;-65
2022/12/02 02:15:31;;;;;;;;;;;;;;;21.41;37.95;95395.72;6124314;19;2165;-66
2022/12/02 02:17:34;;;;;;;;;;;;;;;21.41;38.35;95394.91;6121490;19;2083;-66
2022/12/02 02:19:38;;;;;;;;;;;;;;;21.41;38.52;95401.06;6119824;19;1852;-66
2022/12/02 02:21:44;;;;;;;;;;;;;;;21.38;38.29;95392.63;6121748;19;1909;-66
2022/12/02 02:23:50;;;;;;;;;;;;;;;21.39;38.42;95396.94;6112286;19;1760;-66
2022/12/02 02:25:54;;;;;;;;;;;;;;;21.36;38.17;95394.69;6111811;19;2072;-65
2022/12/02 02:27:59;;;;;;;;;;;;;;;21.39;38.45;95391.59;6119911;19;2118;-65
2022/12/02 02:30:03;;;;;;;;;;;;;;;21.38;38.53;95400.66;6118533;19;1898;-65
2022/12/02 02:32:06;;;;;;;;;;;;;;;21.35;38.07;95398.41;6122348;19;2096;-66
2022/12/02 02:34:10;;;;;;;;;;;;;;;21.39;38.04;95397.75;6123463;19;2240;-66
2022/12/02 02:36:13;;;;;;;;;;;;;;;21.38;38.07;95397.97;6096135;19;1919;-66
2022/12/02 02:38:18;;;;;;;;;;;;;;;21.38;38.42;95397.97;6121808;19;2212;-61
2022/12/02 02:40:26;;;;;;;;;;;;;;;21.40;37.90;95401.28;6122299;19;2077;-61
2022/12/02 02:42:29;;;;;;;;;;;;;;;21.36;38.38;95403.53;6120234;19;2081;-60
2022/12/02 02:44:32;;;;;;;;;;;;;;;21.37;38.18;95409.69;6119494;19;2079;-62
2022/12/02 02:46:36;;;;;;;;;;;;;;;21.40;38.44;95406.63;6109133;19;1937;-62
2022/12/02 02:48:40;;;;;;;;;;;;;;;21.42;38.20;95407.22;6107723;19;2275;-64
2022/12/02 02:50:44;;;;;;;;;;;;;;;21.39;38.49;95410.31;6118526;19;1042;-62
2022/12/02 02:52:48;;;;;;;;;;;;;;;21.39;38.23;95413.78;6122035;19;2066;-62
2022/12/02 02:54:51;;;;;;;;;;;;;;;21.40;38.32;95410.13;6123434;19;2084;-62
2022/12/02 02:56:57;;;;;;;;;;;;;;;21.39;38.42;95419.16;6120475;19;1921;-62
2022/12/02 02:59:01;;;;;;;;;;;;;;;21.37;38.32;95415.88;6096246;19;1838;-64
2022/12/02 03:01:07;;;;;;;;;;;;;;;21.38;38.46;95419.38;6121579;19;2389;-63
2022/12/02 03:03:12;;;;;;;;;;;;;;;21.39;38.47;95419.16;6119737;19;1953;-62
2022/12/02 03:05:15;;;;;;;;;;;;;;;21.36;38.14;95419.56;6120437;19;1948;-62
2022/12/02 03:07:19;;;;;;;;;;;;;;;21.36;38.12;95416.88;6118650;19;2075;-62
2022/12/02 03:09:24;;;;;;;;;;;;;;;21.39;38.11;95421.00;6119866;19;2088;-63
2022/12/02 03:11:28;;;;;;;;;;;;;;;21.37;38.47;95420.38;6103276;19;2166;-61
2022/12/02 03:13:36;;;;;;;;;;;;;;;21.38;38.11;95411.34;6119496;19;2072;-62
2022/12/02 03:15:40;;;;;;;;;;;;;;;21.37;38.63;95417.69;6118110;19;1837;-62
2022/12/02 03:17:43;;;;;;;;;;;;;;;21.35;38.19;95420.59;6120364;19;2083;-63
2022/12/02 03:19:47;;;;;;;;;;;;;;;21.36;38.15;95419.56;6119468;19;1038;-62
2022/12/02 03:21:51;;;;;;;;;;;;;;;21.38;38.42;95425.53;6096226;19;2104;-61
2022/12/02 03:23:56;;;;;;;;;;;;;;;21.38;38.56;95422.03;6120332;19;1974;-63
2022/12/02 03:26:00;;;;;;;;;;;;;;;21.37;38.53;95426.56;6121185;19;1962;-63
2022/12/02 03:28:03;;;;;;;;;;;;;;;21.34;38.41;95426.97;6121480;19;2149;-61
2022/12/02 03:30:10;;;;;;;;;;;;;;;21.37;38.45;95428.41;6121377;19;1963;-61
2022/12/02 03:32:14;;;;;;;;;;;;;;;21.41;38.55;95421.63;6119626;19;1928;-62
2022/12/02 03:34:17;;;;;;;;;;;;;;;21.41;38.51;95427.78;6095162;19;1881;-63
2022/12/02 03:36:21;;;;;;;;;;;;;;;21.42;38.58;95428.59;6118374;19;1892;-62
2022/12/02 03:38:24;;;;;;;;;;;;;;;21.40;38.71;95436.03;6118625;19;1939;-61
2022/12/02 03:40:28;;;;;;;;;;;;;;;21.48;38.32;95427.78;6120172;19;2109;-64
2022/12/02 03:42:31;;;;;;;;;;;;;;;21.46;38.63;95435.19;6120362;19;2118;-64
2022/12/02 03:44:35;;;;;;;;;;;;;;;21.49;38.41;95436.63;6109574;19;1943;-62
2022/12/02 03:46:41;;;;;;;;;;;;;;;21.18;37.50;95436.22;6111745;19;2065;-64
2022/12/02 03:48:45;;;;;;;;;;;;;;;21.35;38.05;95441.97;6121296;19;2087;-65
2022/12/02 03:50:48;;;;;;;;;;;;;;;21.40;37.60;95444.06;6118240;19;1049;-62
2022/12/02 03:52:51;;;;;;;;;;;;;;;21.37;37.68;95442.59;6120571;19;1877;-63
2022/12/02 03:54:55;;;;;;;;;;;;;;;21.41;37.60;95449.19;6118154;19;2030;-67
2022/12/02 03:56:58;;;;;;;;;;;;;;;21.50;37.89;95447.13;6095376;19;1907;-63
2022/12/02 03:59:01;;;;;;;;;;;;;;;21.45;37.79;95444.22;6118464;19;2261;-60
2022/12/02 04:01:05;;;;;;;;;;;;;;;21.45;37.45;95445.06;6118434;19;2112;-62
2022/12/02 04:03:11;;;;;;;;;;;;;;;21.45;37.73;95445.06;6118136;19;1943;-66
2022/12/02 04:05:14;;;;;;;;;;;;;;;21.47;37.78;95450.19;6119250;19;1066;-66
2022/12/02 04:07:17;;;;;;;;;;;;;;;21.48;38.11;95457.19;6109802;19;1926;-62
2022/12/02 04:09:21;;;;;;;;;;;;;;;21.48;37.87;95454.50;6105220;19;2133;-63
2022/12/02 04:11:24;;;;;;;;;;;;;;;21.44;37.86;95453.28;6118599;19;1974;-62
2022/12/02 04:13:27;;;;;;;;;;;;;;;21.48;37.84;95459.84;6117690;19;2140;-63
2022/12/02 04:15:30;;;;;;;;;;;;;;;21.46;37.96;95459.25;6118391;19;1615;-63
2022/12/02 04:17:34;;;;;;;;;;;;;;;21.45;37.69;95461.13;6119445;19;2188;-62
2022/12/02 04:19:40;;;;;;;;;;;;;;;21.48;37.75;95459.84;6095816;19;2113;-62
2022/12/02 04:21:43;;;;;;;;;;;;;;;21.41;37.46;95459.88;6116428;19;2086;-62
2022/12/02 04:23:47;;;;;;;;;;;;;;;21.41;37.54;95461.72;6117700;19;1961;-63
2022/12/02 04:25:50;;;;;;;;;;;;;;;21.43;37.64;95465.03;6118590;19;1911;-62
2022/12/02 04:27:54;;;;;;;;;;;;;;;21.43;37.54;95459.69;6118933;19;2082;-63
2022/12/02 04:29:57;;;;;;;;;;;;;;;21.40;37.09;95463.59;6116662;19;1053;-62
2022/12/02 04:32:00;;;;;;;;;;;;;;;21.45;37.29;95460.28;6094322;19;2522;-63
2022/12/02 04:34:03;;;;;;;;;;;;;;;21.41;37.43;95461.72;6118277;19;1882;-61
2022/12/02 04:36:10;;;;;;;;;;;;;;;21.38;37.27;95459.47;6118917;19;1910;-63
2022/12/02 04:38:13;;;;;;;;;;;;;;;21.36;36.78;95464.19;6117718;19;2185;-62
2022/12/02 04:40:16;;;;;;;;;;;;;;;21.34;37.22;95472.44;6117119;19;2238;-62
2022/12/02 04:42:20;;;;;;;;;;;;;;;21.39;37.07;95472.59;6100478;19;2236;-63
2022/12/02 04:44:23;;;;;;;;;;;;;;;21.36;37.10;95474.88;6117166;19;2038;-63
2022/12/02 04:46:26;;;;;;;;;;;;;;;21.38;36.93;95478.19;6119844;19;1902;-61
2022/12/02 04:48:29;;;;;;;;;;;;;;;21.41;36.70;95483.13;6118763;19;1843;-63
2022/12/02 04:50:33;;;;;;;;;;;;;;;21.35;36.85;95475.91;6116587;19;1273;-62
2022/12/02 04:52:39;;;;;;;;;;;;;;;21.37;37.21;95477.34;6120505;19;1746;-61
2022/12/02 04:54:42;;;;;;;;;;;;;;;21.35;37.28;95475.91;6100451;19;2260;-61
2022/12/02 04:56:45;;;;;;;;;;;;;;;21.35;37.24;95479.41;6125000;19;1925;-63
2022/12/02 04:58:49;;;;;;;;;;;;;;;20.50;33.10;95470.16;6124643;19;1853;-63
2022/12/02 05:00:52;;;;;;;;;;;;;;;17.18;34.86;95484.25;6122235;19;1938;-60
2022/12/02 05:02:55;;;;;;;;;;;;;;;15.26;36.34;95481.09;6119925;19;2110;-60
2022/12/02 05:04:59;;;;;;;;;;;;;;;14.64;36.82;95483.34;6110185;19;1921;-60
2022/12/02 05:07:02;;;;;;;;;;;;;;;14.17;36.96;95486.53;6110194;19;2743;-61
2022/12/02 05:09:08;;;;;;;;;;;;;;;13.98;37.08;95493.72;6121133;19;2115;-61
2022/12/02 05:11:11;;;;;;;;;;;;;;;13.83;37.01;95479.47;6122932;19;2078;-62
2022/12/02 05:13:15;;;;;;;;;;;;;;;13.31;37.53;95485.56;6119223;19;2077;-61
2022/12/02 05:15:18;;;;;;;;;;;;;;;13.10;38.04;95474.53;6122566;19;1806;-61
2022/12/02 05:17:22;;;;;;;;;;;;;;;13.07;38.47;95490.66;6099138;19;2080;-61
2022/12/02 05:19:25;;;;;;;;;;;;;;;15.14;36.18;95477.97;6123608;19;2115;-62
2022/12/02 05:21:28;;;;;;;;;;;;;;;17.11;34.11;95485.16;6121095;19;1185;-62
2022/12/02 05:23:32;;;;;;;;;;;;;;;18.22;32.91;95481.75;6118798;19;1019;-63
2022/12/02 05:25:38;;;;;;;;;;;;;;;18.79;32.12;95474.03;6117403;19;993;-62
2022/12/02 05:27:41;;;;;;;;;;;;;;;19.17;32.04;95475.41;6120115;19;1050;-64
2022/12/02 05:29:44;;;;;;;;;;;;;;;19.41;32.21;95478.72;6102961;19;1949;-61
2022/12/02 05:31:48;;;;;;;;;;;;;;;19.59;32.15;95476.41;6118615;19;1088;-62
2022/12/02 05:33:51;;;;;;;;;;;;;;;19.71;31.98;95481.22;6121458;19;1307;-62
2022/12/02 05:35:54;;;;;;;;;;;;;;;19.88;31.68;95479.88;6120254;19;1119;-60
2022/12/02 05:37:58;;;;;;;;;;;;;;;19.95;31.93;95482.59;6118204;19;1053;-62
2022/12/02 05:40:01;;;;;;;;;;;;;;;20.00;32.21;95486.31;6095452;19;1854;-61
2022/12/02 05:42:09;;;;;;;;;;;;;;;20.05;32.07;95491.88;6116710;19;2075;-61
2022/12/02 05:44:19;;;;;;;;;;;;;;;20.11;32.07;95487.59;6117073;19;1109;-62
2022/12/02 05:46:23;;;;;;;;;;;;;;;20.15;32.43;95491.53;6116737;19;1047;-61
2022/12/02 05:48:27;;;;;;;;;;;;;;;20.17;32.41;95488.66;6116921;19;2003;-61
2022/12/02 05:50:32;;;;;;;;;;;;;;;20.20;32.48;95489.06;6109243;19;1086;-63
2022/12/02 05:52:36;;;;;;;;;;;;;;;20.21;32.33;95488.06;6105469;19;2052;-60
2022/12/02 05:54:40;;;;;;;;;;;;;;;20.27;32.30;95489.94;6116792;19;1047;-60
2022/12/02 05:56:43;;;;;;;;;;;;;;;20.31;32.30;95487.69;6119377;19;966;-61
2022/12/02 05:58:49;;;;;;;;;;;;;;;20.34;32.60;95498.81;6120654;19;1858;-61
2022/12/02 06:00:56;;;;;;;;;;;;;;;20.30;32.72;95497.56;6121458;19;1258;-59
2022/12/02 06:03:01;;;;;;;;;;;;;;;20.38;32.63;95496.59;6095949;19;2063;-62
2022/12/02 06:05:07;;;;;;;;;;;;;;;20.44;32.63;95505.66;6119059;19;1022;-61
2022/12/02 06:07:13;;;;;;;;;;;;;;;20.44;32.78;95501.16;6119340;19;1121;-61
2022/12/02 06:09:18;;;;;;;;;;;;;;;20.50;33.00;95510.22;6118821;19;1053;-62
2022/12/02 06:11:27;;;;;;;;;;;;;;;20.49;33.13;95508.56;6120987;19;1066;-61
2022/12/02 06:13:33;;;;;;;;;;;;;;;20.53;33.27;95520.47;6108343;19;1277;-61
2022/12/02 06:15:40;;;;;;;;;;;;;;;20.58;33.24;95523.38;6109380;19;1990;-62
2022/12/02 06:17:43;;;;;;;;;;;;;;;20.64;33.02;95524.44;6120018;19;1033;-61
2022/12/02 06:19:47;;;;;;;;;;;;;;;20.65;33.01;95529.56;6119966;19;1837;-61
2022/12/02 06:21:51;;;;;;;;;;;;;;;20.65;33.14;95518.88;6120153;19;1210;-60
2022/12/02 06:23:57;;;;;;;;;;;;;;;20.65;33.08;95529.56;6119951;19;1042;-61
2022/12/02 06:26:00;;;;;;;;;;;;;;;20.68;33.41;95531.84;6097193;19;2111;-60
2022/12/02 06:28:12;;;;;;;;;;;;;;;20.66;33.06;95536.56;6119507;19;928;-61
2022/12/02 06:30:16;;;;;;;;;;;;;;;20.69;33.42;95525.47;6118790;19;1066;-60
2022/12/02 06:32:23;;;;;;;;;;;;;;;20.71;33.36;95528.75;6119493;19;1097;-60
2022/12/02 06:34:37;;;;;;;;;;;;;;;20.73;32.83;95542.75;6119437;19;1033;-60
2022/12/02 06:36:41;;;;;;;;;;;;;;;20.73;33.18;95537.41;6097374;19;1346;-66
2022/12/02 06:38:48;;;;;;;;;;;;;;;20.49;33.10;95532.59;6119904;19;1847;-61
2022/12/02 06:40:52;;;;;;;;;;;;;;;20.65;33.58;95532.22;6119139;19;1306;-59
2022/12/02 06:42:56;;;;;;;;;;;;;;;20.76;33.56;95530.84;6119541;19;1045;-60
2022/12/02 06:45:06;;;;;;;;;;;;;;;20.76;33.73;95534.34;6118452;19;1037;-59
2022/12/02 06:47:25;;;;;;;;;;;;;;;20.78;33.62;95534.97;6109318;19;1316;-60
2022/12/02 06:49:37;;;;;;;;;;;;;;;20.76;34.24;95531.66;6107614;19;1895;-60
2022/12/02 06:51:40;;;;;;;;;;;;;;;20.74;34.01;95536.41;6119399;19;977;-60
2022/12/02 06:53:44;;;;;;;;;;;;;;;20.78;33.82;95534.97;6118695;19;1017;-61
2022/12/02 06:55:48;;;;;;;;;;;;;;;20.78;33.66;95532.28;6118648;19;1014;-60
2022/12/02 06:57:51;;;;;;;;;;;;;;;20.77;33.75;95541.34;6120718;19;974;-61
2022/12/02 06:59:55;;;;;;;;;;;;;;;20.81;33.62;95538.25;6094915;19;2001;-60
2022/12/02 07:01:58;;;;;;;;;;;;;;;20.84;33.74;95540.53;6119115;19;1420;-60
2022/12/02 07:04:06;;;;;;;;;;;;;;;20.84;33.79;95536.00;6118525;19;1132;-60
2022/12/02 07:06:15;;;;;;;;;;;;;;;20.82;33.34;95540.72;6120290;19;1049;-61
2022/12/02 07:08:19;;;;;;;;;;;;;;;20.84;33.35;95544.03;6119833;19;979;-60
2022/12/02 07:10:24;;;;;;;;;;;;;;;20.85;33.76;95542.16;6107351;19;1818;-61
2022/12/02 07:12:32;;;;;;;;;;;;;;;20.82;33.75;95546.06;6113618;19;2258;-60
2022/12/02 07:14:44;;;;;;;;;;;;;;;20.89;33.59;95535.41;6116228;19;978;-60
2022/12/02 07:16:47;;;;;;;;;;;;;;;20.81;33.49;95539.09;6120180;19;978;-61
2022/12/02 07:18:51;;;;;;;;;;;;;;;20.83;33.63;95536.19;6118426;19;1851;-61
2022/12/02 07:20:55;;;;;;;;;;;;;;;20.83;33.75;95546.88;6118608;19;1202;-60
2022/12/02 07:23:02;;;;;;;;;;;;;;;20.83;33.57;95544.22;6094891;19;2219;-60
2022/12/02 07:25:28;;;;;;;;;;;;;;;20.83;33.25;95547.72;6117995;19;1061;-61
2022/12/02 07:27:33;;;;;;;;;;;;;;;20.83;33.30;95547.72;6119672;19;1152;-60
2022/12/02 07:29:36;;;;;;;;;;;;;;;20.82;33.17;95551.41;6119166;19;1696;-60
2022/12/02 07:31:43;;;;;;;;;;;;;;;20.83;33.32;95549.56;6118035;19;1074;-60
2022/12/02 07:33:46;;;;;;;;;;;;;;;20.86;33.08;95550.00;6094918;19;2349;-61
2022/12/02 07:35:49;;;;;;;;;;;;;;;20.86;33.16;95551.81;6117298;19;1421;-61
2022/12/02 07:37:53;;;;;;;;;;;;;;;20.86;33.36;95549.16;6117192;19;1258;-61
2022/12/02 07:39:59;;;;;;;;;;;;;;;20.87;33.10;95545.47;6117714;19;1841;-61
2022/12/02 07:42:02;;;;;;;;;;;;;;;20.91;32.86;95546.69;6117801;19;1053;-63
2022/12/02 07:44:06;;;;;;;;;;;;;;;20.92;33.11;95541.19;6106481;19;1439;-62
2022/12/02 07:46:09;;;;;;;;;;;;;;;20.92;33.70;95551.03;6106017;19;2174;-62
2022/12/02 07:48:12;;;;;;;;;;;;;;;20.91;33.63;95544.84;6118297;19;1267;-63
2022/12/02 07:50:17;;;;;;;;;;;;;;;20.91;33.56;95554.72;6119027;19;1105;-63
2022/12/02 07:52:20;;;;;;;;;;;;;;;20.93;33.77;95564.19;6117164;19;1054;-62
2022/12/02 07:54:24;;;;;;;;;;;;;;;20.90;34.02;95558.44;6118488;19;1046;-61
2022/12/02 07:56:30;;;;;;;;;;;;;;;20.88;33.74;95571.97;6095766;19;1889;-63
2022/12/02 07:58:33;;;;;;;;;;;;;;;20.91;33.73;95568.06;6117379;19;1128;-62
2022/12/02 08:00:36;;;;;;;;;;;;;;;20.93;34.09;95561.50;6116303;19;1845;-63
2022/12/02 08:02:40;;;;;;;;;;;;;;;20.90;34.24;95561.91;6117773;19;1347;-62
2022/12/02 08:04:43;;;;;;;;;;;;;;;20.89;33.94;95568.28;6117444;19;987;-62
2022/12/02 08:06:46;;;;;;;;;;;;;;;20.93;34.23;95568.72;6104870;19;1151;-63
2022/12/02 08:08:49;;;;;;;;;;;;;;;20.91;34.04;95560.88;6105675;19;1950;-62
2022/12/02 08:10:53;;;;;;;;;;;;;;;20.93;34.30;95563.38;6117276;19;971;-62
2022/12/02 08:12:59;;;;;;;;;;;;;;;20.99;34.04;95565.22;6118503;19;1107;-61
2022/12/02 08:15:02;;;;;;;;;;;;;;;21.01;34.16;95573.88;6116159;19;1055;-62
2022/12/02 08:17:05;;;;;;;;;;;;;;;21.02;34.37;95572.84;6116775;19;987;-62
2022/12/02 08:19:09;;;;;;;;;;;;;;;21.05;34.05;95572.44;6093844;19;1971;-61
2022/12/02 08:21:12;;;;;;;;;;;;;;;21.06;34.00;95568.75;6115973;19;1145;-62
2022/12/02 08:23:15;;;;;;;;;;;;;;;21.07;33.92;95570.41;6118501;19;1005;-61
2022/12/02 08:25:19;;;;;;;;;;;;;;;21.04;34.03;95572.66;6116186;19;1136;-63
2022/12/02 08:27:22;;;;;;;;;;;;;;;21.04;34.02;95570.81;6122874;19;1025;-62
2022/12/02 08:29:28;;;;;;;;;;;;;;;21.06;34.00;95571.44;6112615;19;1298;-62
2022/12/02 08:31:31;;;;;;;;;;;;;;;21.07;34.37;95573.06;6110792;19;2297;-62
2022/12/02 08:33:34;;;;;;;;;;;;;;;21.07;34.22;95575.75;6121830;19;947;-63
2022/12/02 08:35:38;;;;;;;;;;;;;;;21.01;34.45;95579.22;6122118;19;954;-62
2022/12/02 08:37:41;;;;;;;;;;;;;;;21.00;34.48;95577.59;6120958;19;1830;-63
2022/12/02 08:39:45;;;;;;;;;;;;;;;20.99;34.30;95574.06;6123317;19;1849;-62
2022/12/02 08:41:48;;;;;;;;;;;;;;;21.04;34.21;95575.31;6098581;19;1883;-61
2022/12/02 08:43:51;;;;;;;;;;;;;;;21.06;34.06;95576.78;6120995;19;1054;-62
2022/12/02 08:45:57;;;;;;;;;;;;;;;21.04;34.25;95578.00;6121354;19;1041;-62
2022/12/02 08:48:00;;;;;;;;;;;;;;;21.04;34.18;95591.34;6121896;19;1549;-63
2022/12/02 08:50:04;;;;;;;;;;;;;;;21.05;34.26;95588.47;6121731;19;987;-62
2022/12/02 08:52:07;;;;;;;;;;;;;;;21.04;34.30;95594.84;6109604;19;1266;-61
2022/12/02 08:54:10;;;;;;;;;;;;;;;21.03;34.66;95598.56;6111600;19;2130;-62
2022/12/02 08:56:14;;;;;;;;;;;;;;;21.05;34.61;95591.13;6123221;19;1144;-63
2022/12/02 08:58:17;;;;;;;;;;;;;;;21.04;34.65;95588.69;6120901;19;1033;-63
2022/12/02 09:00:21;;;;;;;;;;;;;;;21.05;34.62;95593.00;6121452;19;1846;-61
2022/12/02 09:02:27;;;;;;;;;;;;;;;21.06;34.43;95591.97;6122689;19;1353;-61
2022/12/02 09:04:30;;;;;;;;;;;;;;;21.08;34.67;95590.75;6098613;19;2054;-64
2022/12/02 09:06:34;;;;;;;;;;;;;;;21.09;34.68;95584.38;6122480;19;1070;-65
2022/12/02 09:08:37;;;;;;;;;;;;;;;21.11;34.35;95587.66;6122889;19;1124;-64
2022/12/02 09:10:40;;;;;;;;;;;;;;;21.07;34.54;95581.09;6123529;19;1017;-61
2022/12/02 09:12:43;;;;;;;;;;;;;;;21.12;34.42;95581.31;6123198;19;1006;-63
2022/12/02 09:14:47;;;;;;;;;;;;;;;21.05;34.49;95579.63;6109585;19;1376;-61
2022/12/02 09:16:50;;;;;;;;;;;;;;;21.07;34.29;95586.44;6111298;19;1344;-61
2022/12/02 09:18:57;;;;;;;;;;;;;;;21.11;34.38;95582.31;6123454;19;1018;-61
2022/12/02 09:21:00;;;;;;;;;;;;;;;21.13;34.09;95579.47;6120737;19;1846;-62
2022/12/02 09:23:03;;;;;;;;;;;;;;;21.09;34.40;95586.25;6122846;19;1070;-62
2022/12/02 09:25:07;;;;;;;;;;;;;;;21.09;33.95;95583.56;6120651;19;1140;-62
2022/12/02 09:27:11;;;;;;;;;;;;;;;21.07;34.17;95578.41;6099856;19;1551;-63
2022/12/02 09:29:14;;;;;;;;;;;;;;;21.08;34.04;95581.91;6121849;19;950;-63
2022/12/02 09:31:17;;;;;;;;;;;;;;;21.09;34.03;95581.72;6122578;19;1058;-62
2022/12/02 09:33:21;;;;;;;;;;;;;;;21.06;33.92;95579.44;6122834;19;1133;-63
2022/12/02 09:35:26;;;;;;;;;;;;;;;21.08;33.60;95571.22;6122119;19;1029;-63
2022/12/02 09:37:30;;;;;;;;;;;;;;;21.09;33.67;95570.22;6108334;19;1532;-64
2022/12/02 09:39:33;;;;;;;;;;;;;;;21.09;33.80;95567.53;6110547;19;1369;-63
2022/12/02 09:41:36;;;;;;;;;;;;;;;21.07;33.70;95570.41;6120587;19;1869;-63
2022/12/02 09:43:41;;;;;;;;;;;;;;;21.07;33.80;95574.94;6121917;19;1124;-63
2022/12/02 09:45:44;;;;;;;;;;;;;;;21.08;33.40;95571.22;6122538;19;990;-63
2022/12/02 09:47:47;;;;;;;;;;;;;;;21.08;33.78;95564.00;6121716;19;1046;-63
2022/12/02 09:49:51;;;;;;;;;;;;;;;21.04;34.17;95570.81;6099262;19;1471;-62
2022/12/02 09:51:59;;;;;;;;;;;;;;;21.04;34.29;95573.47;6121902;19;1693;-63
2022/12/02 09:54:04;;;;;;;;;;;;;;;21.05;34.35;95564.41;6120378;19;1040;-62
2022/12/02 09:56:08;;;;;;;;;;;;;;;21.08;34.31;95564.00;6120157;19;1144;-62
2022/12/02 09:58:13;;;;;;;;;;;;;;;21.06;34.50;95563.41;6120728;19;1224;-63
2022/12/02 10:00:18;;;;;;;;;;;;;;;21.10;34.19;95561.16;6108686;19;1848;-61
2022/12/02 10:02:25;;;;;;;;;;;;;;;21.10;34.21;95559.31;6109040;19;1909;-63
2022/12/02 10:04:28;;;;;;;;;;;;;;;21.11;34.24;95566.28;6121972;19;1022;-62
2022/12/02 10:06:32;;;;;;;;;;;;;;;21.13;34.46;95564.25;6119200;19;1137;-63
2022/12/02 10:08:38;;;;;;;;;;;;;;;21.16;34.66;95558.50;6120828;19;1141;-62
2022/12/02 10:10:44;;;;;;;;;;;;;;;21.17;34.69;95560.19;6120427;19;983;-61
2022/12/02 10:12:47;;;;;;;;;;;;;;;21.17;34.56;95553.97;6098849;19;2160;-62
2022/12/02 10:14:52;;;;;;;;;;;;;;;21.15;34.40;95551.50;6120418;19;1036;-62
2022/12/02 10:16:55;;;;;;;;;;;;;;;21.15;34.42;95554.19;6121562;19;1148;-62
2022/12/02 10:19:02;;;;;;;;;;;;;;;21.18;34.69;95550.31;6119527;19;1065;-63
2022/12/02 10:21:05;;;;;;;;;;;;;;;21.17;35.04;95560.19;6118629;19;1849;-63
2022/12/02 10:23:14;;;;;;;;;;;;;;;21.14;34.99;95554.38;6108048;19;1722;-64
2022/12/02 10:25:30;;;;;;;;;;;;;;;21.21;34.85;95553.41;6109756;19;1865;-62
2022/12/02 10:27:34;;;;;;;;;;;;;;;21.23;34.71;95548.69;6119029;19;973;-63
2022/12/02 10:29:37;;;;;;;;;;;;;;;21.38;34.70;95550.34;6119484;19;1136;-62
2022/12/02 10:31:50;;;;;;;;;;;;;;;21.48;34.63;95545.41;6121316;19;1029;-62
2022/12/02 10:33:55;;;;;;;;;;;;;;;21.56;34.81;95550.56;6121361;19;1024;-62
2022/12/02 10:36:00;;;;;;;;;;;;;;;21.66;34.33;95550.19;6095704;19;1871;-62
2022/12/02 10:38:03;;;;;;;;;;;;;;;21.75;34.16;95545.44;6118812;19;1066;-62
2022/12/02 10:40:11;;;;;;;;;;;;;;;21.80;33.91;95548.34;6120517;19;1885;-63
2022/12/02 10:42:20;;;;;;;;;;;;;;;21.85;34.04;95545.84;6118559;19;1604;-63
2022/12/02 10:44:26;;;;;;;;;;;;;;;21.88;34.38;95537.41;6119255;19;1006;-64
2022/12/02 10:46:30;;;;;;;;;;;;;;;21.93;34.23;95536.78;6097784;19;1547;-63
2022/12/02 10:48:34;;;;;;;;;;;;;;;21.95;34.18;95540.94;6117744;19;985;-64
2022/12/02 10:50:37;;;;;;;;;;;;;;;21.99;33.95;95541.34;6119437;19;1030;-64
2022/12/02 10:52:46;;;;;;;;;;;;;;;21.97;33.92;95544.22;6118714;19;1074;-62
2022/12/02 10:54:51;;;;;;;;;;;;;;;21.97;34.49;95544.22;6119280;19;1037;-63
2022/12/02 10:56:54;;;;;;;;;;;;;;;21.98;34.44;95543.19;6107506;19;1149;-63
2022/12/02 10:59:01;;;;;;;;;;;;;;;21.99;34.37;95536.78;6107874;19;1401;-63